createdAt,value
2018-12-17T00:02:15.429Z,2.40
2018-12-17T00:04:43.828Z,2.40
2018-12-17T00:07:12.251Z,2.40
2018-12-17T00:09:40.591Z,2.40
2018-12-17T00:12:08.806Z,2.40
2018-12-17T00:14:37.015Z,2.30
2018-12-17T00:17:05.338Z,2.30
2018-12-17T00:19:33.567Z,2.30
2018-12-17T00:22:01.987Z,2.30
2018-12-17T00:24:30.455Z,2.30
2018-12-17T00:26:58.737Z,2.30
2018-12-17T00:29:26.975Z,2.20
2018-12-17T00:31:55.191Z,2.20
2018-12-17T00:34:23.473Z,2.20
2018-12-17T00:36:51.783Z,2.10
2018-12-17T00:39:20.052Z,2.10
2018-12-17T00:41:48.248Z,2.10
2018-12-17T00:44:16.566Z,2.10
2018-12-17T00:46:44.800Z,2.10
2018-12-17T00:49:12.994Z,2.00
2018-12-17T00:51:41.282Z,2.00
2018-12-17T00:54:09.579Z,2.00
2018-12-17T00:56:37.778Z,2.00
2018-12-17T00:59:06.019Z,1.90
2018-12-17T01:01:34.308Z,1.90
2018-12-17T01:04:02.530Z,1.90
2018-12-17T01:06:30.789Z,1.90
2018-12-17T01:08:59.102Z,1.90
2018-12-17T01:11:27.386Z,1.90
2018-12-17T01:13:55.764Z,1.90
2018-12-17T01:16:23.979Z,1.90
2018-12-17T01:18:52.209Z,1.90
2018-12-17T01:21:21.004Z,1.90
2018-12-17T01:23:49.651Z,1.80
2018-12-17T01:26:17.995Z,1.80
2018-12-17T01:28:46.546Z,1.90
2018-12-17T01:31:14.761Z,1.90
2018-12-17T01:33:43.002Z,1.90
2018-12-17T01:36:11.218Z,1.90
2018-12-17T01:38:39.433Z,1.80
2018-12-17T01:41:07.735Z,1.80
2018-12-17T01:43:35.944Z,1.80
2018-12-17T01:46:04.168Z,1.80
2018-12-17T01:48:32.591Z,1.70
2018-12-17T01:51:00.828Z,1.80
2018-12-17T01:53:29.142Z,1.80
2018-12-17T01:55:57.543Z,1.80
2018-12-17T01:58:29.202Z,1.80
2018-12-17T02:00:56.051Z,1.80
2018-12-17T02:03:24.315Z,1.80
2018-12-17T02:05:52.550Z,1.70
2018-12-17T02:08:20.836Z,1.70
2018-12-17T02:10:49.052Z,1.70
2018-12-17T02:13:17.272Z,1.70
2018-12-17T02:15:45.491Z,1.70
2018-12-17T02:18:13.735Z,1.70
2018-12-17T02:20:41.940Z,1.70
2018-12-17T02:23:10.154Z,1.60
2018-12-17T02:25:38.459Z,1.60
2018-12-17T02:28:06.723Z,1.60
2018-12-17T02:30:34.982Z,1.60
2018-12-17T02:33:03.296Z,1.60
2018-12-17T02:35:31.540Z,1.60
2018-12-17T02:37:59.827Z,1.60
2018-12-17T02:40:28.183Z,1.50
2018-12-17T02:42:56.564Z,1.50
2018-12-17T02:45:24.956Z,1.50
2018-12-17T02:47:53.169Z,1.50
2018-12-17T02:50:21.494Z,1.50
2018-12-17T02:52:49.967Z,1.50
2018-12-17T02:55:18.176Z,1.50
2018-12-17T02:57:46.440Z,1.40
2018-12-17T03:00:14.729Z,1.40
2018-12-17T03:02:43.107Z,1.40
2018-12-17T03:05:11.419Z,1.40
2018-12-17T03:07:39.659Z,1.40
2018-12-17T03:10:08.066Z,1.40
2018-12-17T03:12:36.313Z,1.40
2018-12-17T03:15:06.235Z,1.40
2018-12-17T03:17:34.445Z,1.40
2018-12-17T03:20:02.709Z,1.40
2018-12-17T03:22:31.770Z,1.40
2018-12-17T03:25:00.134Z,1.40
2018-12-17T03:27:28.433Z,1.40
2018-12-17T03:29:56.652Z,1.40
2018-12-17T03:32:24.981Z,1.40
2018-12-17T03:34:53.347Z,1.40
2018-12-17T03:37:21.564Z,1.40
2018-12-17T03:39:49.775Z,1.30
2018-12-17T03:42:17.985Z,1.30
2018-12-17T03:44:46.373Z,1.20
2018-12-17T03:47:14.641Z,1.20
2018-12-17T03:49:42.847Z,1.20
2018-12-17T03:52:11.080Z,1.20
2018-12-17T03:54:39.461Z,1.20
2018-12-17T03:57:07.953Z,1.20
2018-12-17T03:59:36.328Z,1.20
2018-12-17T04:02:04.912Z,1.30
2018-12-17T04:07:07.729Z,1.30
2018-12-17T04:09:35.971Z,1.30
2018-12-17T04:12:04.189Z,1.30
2018-12-17T04:14:32.551Z,1.30
2018-12-17T04:17:00.843Z,1.30
2018-12-17T04:19:29.080Z,1.20
2018-12-17T04:21:57.375Z,1.20
2018-12-17T04:24:25.588Z,1.20
2018-12-17T04:26:53.870Z,1.10
2018-12-17T04:29:22.203Z,1.00
2018-12-17T04:31:50.472Z,1.00
2018-12-17T04:34:18.789Z,1.00
2018-12-17T04:36:47.094Z,1.00
2018-12-17T04:39:15.503Z,1.00
2018-12-17T04:41:43.712Z,0.90
2018-12-17T04:44:12.132Z,0.90
2018-12-17T04:46:40.342Z,0.90
2018-12-17T04:49:08.604Z,0.90
2018-12-17T04:51:36.834Z,0.90
2018-12-17T04:54:05.246Z,0.90
2018-12-17T04:56:33.522Z,0.80
2018-12-17T04:59:01.821Z,0.80
2018-12-17T05:01:30.051Z,0.70
2018-12-17T05:03:58.369Z,0.80
2018-12-17T05:06:26.850Z,0.80
2018-12-17T05:08:55.071Z,0.70
2018-12-17T05:11:23.292Z,0.70
2018-12-17T05:13:51.621Z,0.70
2018-12-17T05:16:19.934Z,0.70
2018-12-17T05:18:52.037Z,0.70
2018-12-17T05:21:20.262Z,0.60
2018-12-17T05:23:48.572Z,0.70
2018-12-17T05:26:16.773Z,0.60
2018-12-17T05:28:45.063Z,0.50
2018-12-17T05:31:13.304Z,0.50
2018-12-17T05:33:41.620Z,0.50
2018-12-17T05:36:10.004Z,0.50
2018-12-17T05:38:38.237Z,0.50
2018-12-17T05:41:06.550Z,0.40
2018-12-17T05:43:34.786Z,0.40
2018-12-17T05:46:03.325Z,0.40
2018-12-17T05:48:31.628Z,0.40
2018-12-17T05:50:59.895Z,0.40
2018-12-17T05:53:28.175Z,0.40
2018-12-17T05:55:56.434Z,0.40
2018-12-17T05:58:24.736Z,0.40
2018-12-17T06:00:53.000Z,0.40
2018-12-17T06:03:21.296Z,0.40
2018-12-17T06:05:49.558Z,0.40
2018-12-17T06:08:17.831Z,0.40
2018-12-17T06:10:46.306Z,0.50
2018-12-17T06:13:14.543Z,0.50
2018-12-17T06:15:43.575Z,0.50
2018-12-17T06:18:11.865Z,0.50
2018-12-17T06:20:40.165Z,0.50
2018-12-17T06:23:08.375Z,0.50
2018-12-17T06:25:36.615Z,0.50
2018-12-17T06:28:04.996Z,0.50
2018-12-17T06:30:33.249Z,0.40
2018-12-17T06:33:01.451Z,0.40
2018-12-17T06:35:29.667Z,0.50
2018-12-17T06:37:58.013Z,0.50
2018-12-17T06:40:26.211Z,0.50
2018-12-17T06:42:54.418Z,0.50
2018-12-17T06:45:22.786Z,0.50
2018-12-17T06:47:51.006Z,0.50
2018-12-17T06:50:19.230Z,0.60
2018-12-17T06:52:47.533Z,0.60
2018-12-17T06:55:15.806Z,0.60
2018-12-17T06:57:44.431Z,0.60
2018-12-17T07:00:12.663Z,0.60
2018-12-17T07:02:41.038Z,0.50
2018-12-17T07:05:09.344Z,0.40
2018-12-17T07:07:37.559Z,0.40
2018-12-17T07:10:06.008Z,0.40
2018-12-17T07:12:34.351Z,0.50
2018-12-17T07:15:02.566Z,0.40
2018-12-17T07:17:30.807Z,0.50
2018-12-17T07:19:59.071Z,0.40
2018-12-17T07:22:27.291Z,0.40
2018-12-17T07:24:55.511Z,0.40
2018-12-17T07:27:23.803Z,0.40
2018-12-17T07:29:52.024Z,0.40
2018-12-17T07:32:20.315Z,0.40
2018-12-17T07:34:48.984Z,0.50
2018-12-17T07:37:17.540Z,0.50
2018-12-17T07:39:45.806Z,0.60
2018-12-17T07:42:14.058Z,0.60
2018-12-17T07:44:42.367Z,0.60
2018-12-17T07:47:10.614Z,0.70
2018-12-17T07:49:38.899Z,0.70
2018-12-17T07:52:07.278Z,0.80
2018-12-17T07:54:36.119Z,0.80
2018-12-17T07:57:04.463Z,0.80
2018-12-17T07:59:32.767Z,0.90
2018-12-17T08:02:01.015Z,0.90
2018-12-17T08:04:29.271Z,1.00
2018-12-17T08:06:57.515Z,1.00
2018-12-17T08:09:25.922Z,1.10
2018-12-17T08:11:54.299Z,1.20
2018-12-17T08:14:22.542Z,1.30
2018-12-17T08:16:55.715Z,1.30
2018-12-17T08:19:24.041Z,1.40
2018-12-17T08:21:52.334Z,1.40
2018-12-17T08:24:20.611Z,1.50
2018-12-17T08:26:48.903Z,1.50
2018-12-17T08:29:17.199Z,1.50
2018-12-17T08:31:45.422Z,1.50
2018-12-17T08:34:13.715Z,1.60
2018-12-17T08:36:41.932Z,1.60
2018-12-17T08:39:10.147Z,1.70
2018-12-17T08:41:38.530Z,1.80
2018-12-17T08:44:06.819Z,1.90
2018-12-17T08:46:35.030Z,2.00
2018-12-17T08:49:03.279Z,2.00
2018-12-17T08:51:31.555Z,2.10
2018-12-17T08:53:59.831Z,2.20
2018-12-17T08:56:28.231Z,2.20
2018-12-17T08:58:56.438Z,2.20
2018-12-17T09:01:24.730Z,2.20
2018-12-17T09:03:53.029Z,2.20
2018-12-17T09:06:21.242Z,2.20
2018-12-17T09:08:49.670Z,2.30
2018-12-17T09:11:17.885Z,2.30
2018-12-17T09:13:46.131Z,2.40
2018-12-17T09:16:14.624Z,2.40
2018-12-17T09:18:42.838Z,2.50
2018-12-17T09:21:11.054Z,2.50
2018-12-17T09:23:39.265Z,2.60
2018-12-17T09:26:07.527Z,2.70
2018-12-17T09:28:35.787Z,2.70
2018-12-17T09:31:04.068Z,2.70
2018-12-17T09:33:32.312Z,2.80
2018-12-17T09:36:00.614Z,2.70
2018-12-17T09:38:28.851Z,2.80
2018-12-17T09:40:57.071Z,2.90
2018-12-17T09:43:25.424Z,2.90
2018-12-17T09:45:53.770Z,2.90
2018-12-17T09:48:22.004Z,2.90
2018-12-17T09:50:50.265Z,2.90
2018-12-17T09:53:18.539Z,2.90
2018-12-17T09:55:46.821Z,2.90
2018-12-17T09:58:15.311Z,3.00
2018-12-17T10:00:43.574Z,3.10
2018-12-17T10:03:11.865Z,3.20
2018-12-17T10:05:40.123Z,3.40
2018-12-17T10:08:08.605Z,3.50
2018-12-17T10:10:37.189Z,3.60
2018-12-17T10:13:05.462Z,3.80
2018-12-17T10:15:33.667Z,3.90
2018-12-17T10:18:01.935Z,4.00
2018-12-17T10:20:30.155Z,4.10
2018-12-17T10:22:58.465Z,4.20
2018-12-17T10:25:26.752Z,4.30
2018-12-17T10:27:55.006Z,4.30
2018-12-17T10:30:23.404Z,4.30
2018-12-17T10:32:51.772Z,4.30
2018-12-17T10:35:20.061Z,4.30
2018-12-17T10:37:48.334Z,4.30
2018-12-17T10:40:16.605Z,4.30
2018-12-17T10:42:44.820Z,4.20
2018-12-17T10:45:13.160Z,4.20
2018-12-17T10:47:41.443Z,4.10
2018-12-17T10:50:09.939Z,4.00
2018-12-17T10:52:38.196Z,4.00
2018-12-17T10:55:06.584Z,4.10
2018-12-17T10:57:34.885Z,4.10
2018-12-17T11:00:03.951Z,4.10
2018-12-17T11:02:33.043Z,4.20
2018-12-17T11:07:49.155Z,4.20
2018-12-17T11:10:17.446Z,4.20
2018-12-17T11:12:46.136Z,4.20
2018-12-17T11:15:18.071Z,4.20
2018-12-17T11:17:46.304Z,4.10
2018-12-17T11:20:14.647Z,4.10
2018-12-17T11:22:42.877Z,4.10
2018-12-17T11:25:11.082Z,4.10
2018-12-17T11:27:39.323Z,4.10
2018-12-17T11:30:09.744Z,4.10
2018-12-17T11:35:25.179Z,4.10
2018-12-17T11:37:53.402Z,4.20
2018-12-17T11:40:21.620Z,4.30
2018-12-17T11:42:49.842Z,4.30
2018-12-17T11:45:18.168Z,4.40
2018-12-17T11:47:46.483Z,4.40
2018-12-17T11:50:14.738Z,4.50
2018-12-17T11:52:43.005Z,4.50
2018-12-17T11:55:11.295Z,4.50
2018-12-17T11:58:10.267Z,4.50
2018-12-17T12:00:39.411Z,4.50
2018-12-17T12:03:07.639Z,4.40
2018-12-17T12:05:35.959Z,4.40
2018-12-17T12:08:04.254Z,4.40
2018-12-17T12:10:32.566Z,4.50
2018-12-17T12:13:00.851Z,4.60
2018-12-17T12:15:29.125Z,4.60
2018-12-17T12:17:57.403Z,4.70
2018-12-17T12:23:23.152Z,4.70
2018-12-17T12:25:51.419Z,4.90
2018-12-17T12:28:19.631Z,5.00
2018-12-17T12:30:47.851Z,5.00
2018-12-17T12:33:16.069Z,5.10
2018-12-17T12:35:44.312Z,5.10
2018-12-17T12:38:12.570Z,5.20
2018-12-17T12:40:40.815Z,5.30
2018-12-17T12:43:09.072Z,5.40
2018-12-17T12:45:37.332Z,5.40
2018-12-17T12:48:05.582Z,5.50
2018-12-17T12:50:33.792Z,5.70
2018-12-17T12:53:02.048Z,5.80
2018-12-17T12:55:30.323Z,5.90
2018-12-17T12:58:03.496Z,6.00
2018-12-17T13:00:28.823Z,6.10
2018-12-17T13:02:57.728Z,6.20
2018-12-17T13:05:25.991Z,6.30
2018-12-17T13:07:54.272Z,6.30
2018-12-17T13:10:22.647Z,6.30
2018-12-17T13:12:50.936Z,6.40
2018-12-17T13:15:19.144Z,6.50
2018-12-17T13:17:47.692Z,6.60
2018-12-17T13:20:15.923Z,6.70
2018-12-17T13:22:44.204Z,6.80
2018-12-17T13:27:57.499Z,6.80
2018-12-17T13:30:25.775Z,6.60
2018-12-17T13:32:54.121Z,6.50
2018-12-17T13:35:22.339Z,6.50
2018-12-17T13:37:50.578Z,6.40
2018-12-17T13:40:18.851Z,6.30
2018-12-17T13:42:47.092Z,6.20
2018-12-17T13:45:16.060Z,6.10
2018-12-17T13:47:44.295Z,5.90
2018-12-17T13:50:18.047Z,5.80
2018-12-17T13:52:46.407Z,5.80
2018-12-17T13:55:14.756Z,5.80
2018-12-17T13:57:43.134Z,5.80
2018-12-17T14:00:11.805Z,5.80
2018-12-17T14:02:40.175Z,5.70
2018-12-17T14:05:08.491Z,5.70
2018-12-17T14:07:36.840Z,5.70
2018-12-17T14:10:13.419Z,5.60
2018-12-17T14:12:41.695Z,5.60
2018-12-17T14:15:09.971Z,5.50
2018-12-17T14:20:29.871Z,5.50
2018-12-17T14:22:58.175Z,5.50
2018-12-17T14:25:26.423Z,5.50
2018-12-17T14:27:54.686Z,5.50
2018-12-17T14:30:23.124Z,5.60
2018-12-17T14:32:51.358Z,5.60
2018-12-17T14:35:19.656Z,5.50
2018-12-17T14:38:07.688Z,5.60
2018-12-17T14:40:36.051Z,5.50
2018-12-17T14:43:04.316Z,5.50
2018-12-17T14:45:32.635Z,5.60
2018-12-17T14:48:00.880Z,5.60
2018-12-17T14:50:29.290Z,5.50
2018-12-17T14:52:57.536Z,5.50
2018-12-17T14:55:25.797Z,5.50
2018-12-17T14:57:54.199Z,5.50
2018-12-17T15:00:22.489Z,5.50
2018-12-17T15:02:50.759Z,5.50
2018-12-17T15:05:19.127Z,5.50
2018-12-17T15:07:47.395Z,5.40
2018-12-17T15:10:15.665Z,5.40
2018-12-17T15:12:43.973Z,5.40
2018-12-17T15:15:12.358Z,5.40
2018-12-17T15:17:40.624Z,5.40
2018-12-17T15:20:10.247Z,5.30
2018-12-17T15:22:38.526Z,5.30
2018-12-17T15:25:08.712Z,5.30
2018-12-17T15:27:37.091Z,5.30
2018-12-17T15:30:05.792Z,5.20
2018-12-17T15:32:34.096Z,5.30
2018-12-17T15:35:02.353Z,5.20
2018-12-17T15:37:30.567Z,5.20
2018-12-17T15:39:58.916Z,5.20
2018-12-17T15:42:27.173Z,5.20
2018-12-17T15:44:55.537Z,5.10
2018-12-17T15:47:23.810Z,5.10
2018-12-17T15:49:52.107Z,5.10
2018-12-17T15:52:20.431Z,5.10
2018-12-17T15:54:48.827Z,5.10
2018-12-17T15:57:17.163Z,5.10
2018-12-17T15:59:45.435Z,5.00
2018-12-17T16:02:13.770Z,5.00
2018-12-17T16:04:42.207Z,5.00
2018-12-17T16:07:10.628Z,5.10
2018-12-17T16:09:39.441Z,5.10
2018-12-17T16:12:07.715Z,5.10
2018-12-17T16:14:35.942Z,5.10
2018-12-17T16:17:04.259Z,5.10
2018-12-17T16:19:32.519Z,5.10
2018-12-17T16:22:00.799Z,5.10
2018-12-17T16:24:29.050Z,5.10
2018-12-17T16:26:57.354Z,5.00
2018-12-17T16:29:25.642Z,5.00
2018-12-17T16:31:57.207Z,5.10
2018-12-17T16:34:24.223Z,5.10
2018-12-17T16:36:52.499Z,5.10
2018-12-17T16:39:20.883Z,5.10
2018-12-17T16:41:49.259Z,5.20
2018-12-17T16:44:17.479Z,5.10
2018-12-17T16:46:45.734Z,5.10
2018-12-17T16:49:14.011Z,5.10
2018-12-17T16:51:42.376Z,5.10
2018-12-17T16:54:10.646Z,5.10
2018-12-17T16:56:38.919Z,5.10
2018-12-17T16:59:07.255Z,5.10
2018-12-17T17:01:35.579Z,5.10
2018-12-17T17:04:03.880Z,5.10
2018-12-17T17:06:32.224Z,5.10
2018-12-17T17:09:00.530Z,5.10
2018-12-17T17:11:28.779Z,5.10
2018-12-17T17:13:57.031Z,5.20
2018-12-17T17:16:25.274Z,5.20
2018-12-17T17:18:53.622Z,5.20
2018-12-17T17:21:21.980Z,5.20
2018-12-17T17:23:50.369Z,5.20
2018-12-17T17:26:18.632Z,5.20
2018-12-17T17:28:46.941Z,5.20
2018-12-17T17:31:15.183Z,5.20
2018-12-17T17:33:43.434Z,5.20
2018-12-17T17:36:11.675Z,5.20
2018-12-17T17:38:39.922Z,5.20
2018-12-17T17:41:08.207Z,5.20
2018-12-17T17:43:36.485Z,5.20
2018-12-17T17:46:05.754Z,5.10
2018-12-17T17:48:33.967Z,5.10
2018-12-17T17:51:02.267Z,5.10
2018-12-17T17:53:30.491Z,5.10
2018-12-17T17:55:58.897Z,5.10
2018-12-17T17:58:27.252Z,5.10
2018-12-17T18:00:56.296Z,5.10
2018-12-17T18:03:24.556Z,5.10
2018-12-17T18:05:52.916Z,5.10
2018-12-17T18:08:21.280Z,5.20
2018-12-17T18:10:49.553Z,5.30
2018-12-17T18:13:17.771Z,5.40
2018-12-17T18:15:46.301Z,5.40
2018-12-17T18:18:15.079Z,5.30
2018-12-17T18:20:43.502Z,5.20
2018-12-17T18:23:11.755Z,5.20
2018-12-17T18:25:41.106Z,5.20
2018-12-17T18:28:09.371Z,5.20
2018-12-17T18:30:37.843Z,5.10
2018-12-17T18:33:07.119Z,5.10
2018-12-17T18:35:35.395Z,5.10
2018-12-17T18:38:03.643Z,5.10
2018-12-17T18:40:31.891Z,5.10
2018-12-17T18:43:00.119Z,5.00
2018-12-17T18:45:28.462Z,5.00
2018-12-17T18:47:56.896Z,5.10
2018-12-17T18:50:25.367Z,5.00
2018-12-17T18:52:54.867Z,5.00
2018-12-17T18:58:07.320Z,5.00
2018-12-17T19:00:35.788Z,5.00
2018-12-17T19:03:04.330Z,5.00
2018-12-17T19:05:32.730Z,4.90
2018-12-17T19:08:00.980Z,4.90
2018-12-17T19:10:31.235Z,4.90
2018-12-17T19:12:59.428Z,4.80
2018-12-17T19:15:27.739Z,4.80
2018-12-17T19:17:56.203Z,4.90
2018-12-17T19:20:24.664Z,4.90
2018-12-17T19:22:53.007Z,4.80
2018-12-17T19:25:21.317Z,4.80
2018-12-17T19:27:49.587Z,4.80
2018-12-17T19:30:18.073Z,4.80
2018-12-17T19:32:46.481Z,4.80
2018-12-17T19:35:15.129Z,4.80
2018-12-17T19:37:43.953Z,4.80
2018-12-17T19:40:12.673Z,4.80
2018-12-17T19:42:40.992Z,4.70
2018-12-17T19:45:09.582Z,4.70
2018-12-17T19:47:37.999Z,4.70
2018-12-17T19:50:07.975Z,4.70
2018-12-17T19:52:36.279Z,4.70
2018-12-17T19:55:05.439Z,4.70
2018-12-17T19:57:33.847Z,4.70
2018-12-17T20:00:02.069Z,4.70
2018-12-17T20:02:30.389Z,4.70
2018-12-17T20:04:58.636Z,4.70
2018-12-17T20:07:26.935Z,4.70
2018-12-17T20:09:55.186Z,4.70
2018-12-17T20:12:27.273Z,4.70
2018-12-17T20:14:55.527Z,4.80
2018-12-17T20:17:23.887Z,4.70
2018-12-17T20:19:52.932Z,4.80
2018-12-17T20:22:21.363Z,4.70
2018-12-17T20:24:51.596Z,4.80
2018-12-17T20:27:19.910Z,4.70
2018-12-17T20:29:50.540Z,4.70
2018-12-17T20:32:18.427Z,4.70
2018-12-17T20:34:46.709Z,4.70
2018-12-17T20:37:15.047Z,4.70
2018-12-17T20:39:43.272Z,4.70
2018-12-17T20:42:11.702Z,4.60
2018-12-17T20:44:39.903Z,4.60
2018-12-17T20:47:08.162Z,4.60
2018-12-17T20:49:36.450Z,4.60
2018-12-17T20:52:04.885Z,4.70
2018-12-17T20:54:33.420Z,4.60
2018-12-17T20:57:01.871Z,4.70
2018-12-17T20:59:31.089Z,4.70
2018-12-17T21:01:59.523Z,4.60
2018-12-17T21:04:27.846Z,4.60
2018-12-17T21:06:56.131Z,4.70
2018-12-17T21:09:26.342Z,4.70
2018-12-17T21:11:54.640Z,4.60
2018-12-17T21:14:23.830Z,4.60
2018-12-17T21:16:52.367Z,4.60
2018-12-17T21:19:20.641Z,4.50
2018-12-17T21:21:49.011Z,4.50
2018-12-17T21:24:17.320Z,4.50
2018-12-17T21:26:45.622Z,4.50
2018-12-17T21:29:13.868Z,4.40
2018-12-17T21:31:42.295Z,4.40
2018-12-17T21:34:10.599Z,4.40
2018-12-17T21:36:38.875Z,4.50
2018-12-17T21:39:07.268Z,4.50
2018-12-17T21:41:35.540Z,4.50
2018-12-17T21:44:03.815Z,4.50
2018-12-17T21:46:32.099Z,4.50
2018-12-17T21:49:00.315Z,4.50
2018-12-17T21:51:28.665Z,4.60
2018-12-17T21:53:57.031Z,4.60
2018-12-17T21:56:25.317Z,4.50
2018-12-17T21:58:53.605Z,4.60
2018-12-17T22:01:21.885Z,4.60
2018-12-17T22:03:50.170Z,4.60
2018-12-17T22:06:18.519Z,4.60
2018-12-17T22:08:46.754Z,4.60
2018-12-17T22:11:15.073Z,4.60
2018-12-17T22:13:43.391Z,4.60
2018-12-17T22:16:11.650Z,4.60
2018-12-17T22:18:39.926Z,4.50
2018-12-17T22:21:08.147Z,4.60
2018-12-17T22:23:36.375Z,4.50
2018-12-17T22:26:04.729Z,4.50
2018-12-17T22:28:33.079Z,4.50
2018-12-17T22:31:01.365Z,4.50
2018-12-17T22:33:29.587Z,4.50
2018-12-17T22:35:57.828Z,4.50
2018-12-17T22:38:26.125Z,4.40
2018-12-17T22:40:54.398Z,4.50
2018-12-17T22:43:22.742Z,4.40
2018-12-17T22:45:50.964Z,4.40
2018-12-17T22:48:19.202Z,4.40
2018-12-17T22:50:47.503Z,4.40
2018-12-17T22:53:15.743Z,4.30
2018-12-17T22:55:44.051Z,4.30
2018-12-17T22:58:12.295Z,4.40
2018-12-17T23:00:41.595Z,4.30
2018-12-17T23:03:10.010Z,4.30
2018-12-17T23:05:38.461Z,4.30
2018-12-17T23:08:06.767Z,4.30
2018-12-17T23:10:52.701Z,4.30
2018-12-17T23:13:38.839Z,4.30
2018-12-17T23:16:24.926Z,4.30
2018-12-17T23:18:52.599Z,4.40
2018-12-17T23:21:21.081Z,4.40
2018-12-17T23:23:49.626Z,4.40
2018-12-17T23:26:17.924Z,4.50
2018-12-17T23:28:46.223Z,4.50
2018-12-17T23:31:14.486Z,4.50
2018-12-17T23:33:42.748Z,4.60
2018-12-17T23:36:11.002Z,4.60
2018-12-17T23:38:39.323Z,4.60
2018-12-17T23:41:07.569Z,4.70
2018-12-17T23:43:35.812Z,4.70
2018-12-17T23:46:04.109Z,4.70
2018-12-17T23:48:32.502Z,4.70
2018-12-17T23:51:00.831Z,4.70
2018-12-17T23:53:29.259Z,4.70
2018-12-17T23:55:57.631Z,4.70
2018-12-17T23:58:25.871Z,4.70
